sensor_id;sensor_type;location;lat;lon;timestamp;temperature;humidity
4509;DHT22;2267;48.816;9.230;2022-11-15T00:00:47;10.70;99.90
4509;DHT22;2267;48.816;9.230;2022-11-15T00:03:19;10.80;99.90
4509;DHT22;2267;48.816;9.230;2022-11-15T00:05:48;10.70;99.90
4509;DHT22;2267;48.816;9.230;2022-11-15T00:08:14;10.80;99.90
4509;DHT22;2267;48.816;9.230;2022-11-15T00:10:42;10.80;99.90
4509;DHT22;2267;48.816;9.230;2022-11-15T00:13:10;10.70;99.90
4509;DHT22;2267;48.816;9.230;2022-11-15T00:15:39;10.80;99.90
4509;DHT22;2267;48.816;9.230;2022-11-15T00:18:14;10.80;99.90
4509;DHT22;2267;48.816;9.230;2022-11-15T00:20:41;10.80;99.90
4509;DHT22;2267;48.816;9.230;2022-11-15T00:23:09;10.80;99.90
4509;DHT22;2267;48.816;9.230;2022-11-15T00:25:36;10.80;99.90
4509;DHT22;2267;48.816;9.230;2022-11-15T00:28:03;10.80;99.90
4509;DHT22;2267;48.816;9.230;2022-11-15T00:30:30;10.80;99.90
4509;DHT22;2267;48.816;9.230;2022-11-15T00:33:02;10.80;99.90
4509;DHT22;2267;48.816;9.230;2022-11-15T00:35:31;10.80;99.90
4509;DHT22;2267;48.816;9.230;2022-11-15T00:37:59;10.80;99.90
4509;DHT22;2267;48.816;9.230;2022-11-15T00:40:26;10.80;99.90
4509;DHT22;2267;48.816;9.230;2022-11-15T00:42:53;10.80;99.90
4509;DHT22;2267;48.816;9.230;2022-11-15T00:45:20;10.80;99.90
4509;DHT22;2267;48.816;9.230;2022-11-15T00:47:46;10.80;99.90
4509;DHT22;2267;48.816;9.230;2022-11-15T00:50:14;10.80;99.90
4509;DHT22;2267;48.816;9.230;2022-11-15T00:52:41;10.80;99.90
4509;DHT22;2267;48.816;9.230;2022-11-15T00:55:16;10.80;99.90
4509;DHT22;2267;48.816;9.230;2022-11-15T00:57:43;10.80;99.90
4509;DHT22;2267;48.816;9.230;2022-11-15T01:00:11;10.80;99.90
4509;DHT22;2267;48.816;9.230;2022-11-15T01:02:38;10.80;99.90
4509;DHT22;2267;48.816;9.230;2022-11-15T01:05:05;10.80;99.90
4509;DHT22;2267;48.816;9.230;2022-11-15T01:07:32;10.80;99.90
4509;DHT22;2267;48.816;9.230;2022-11-15T01:09:59;10.80;99.90
4509;DHT22;2267;48.816;9.230;2022-11-15T01:12:25;10.80;99.90
4509;DHT22;2267;48.816;9.230;2022-11-15T01:14:52;10.80;99.90
4509;DHT22;2267;48.816;9.230;2022-11-15T01:17:19;10.80;99.90
4509;DHT22;2267;48.816;9.230;2022-11-15T01:19:46;10.80;99.90
4509;DHT22;2267;48.816;9.230;2022-11-15T01:22:13;10.80;99.90
4509;DHT22;2267;48.816;9.230;2022-11-15T01:24:39;10.80;99.90
4509;DHT22;2267;48.816;9.230;2022-11-15T01:27:06;10.70;99.90
4509;DHT22;2267;48.816;9.230;2022-11-15T01:29:33;10.70;99.90
4509;DHT22;2267;48.816;9.230;2022-11-15T01:32:00;10.70;99.90
4509;DHT22;2267;48.816;9.230;2022-11-15T01:34:26;10.70;99.90
4509;DHT22;2267;48.816;9.230;2022-11-15T01:36:53;10.70;99.90
4509;DHT22;2267;48.816;9.230;2022-11-15T01:39:20;10.70;99.90
4509;DHT22;2267;48.816;9.230;2022-11-15T01:41:46;10.70;99.90
4509;DHT22;2267;48.816;9.230;2022-11-15T01:44:50;10.70;99.90
4509;DHT22;2267;48.816;9.230;2022-11-15T01:47:21;10.60;99.90
4509;DHT22;2267;48.816;9.230;2022-11-15T01:49:56;10.60;99.90
4509;DHT22;2267;48.816;9.230;2022-11-15T01:52:25;10.60;99.90
4509;DHT22;2267;48.816;9.230;2022-11-15T01:55:17;10.60;99.90
4509;DHT22;2267;48.816;9.230;2022-11-15T01:57:49;10.50;99.90
4509;DHT22;2267;48.816;9.230;2022-11-15T02:00:17;10.50;99.90
4509;DHT22;2267;48.816;9.230;2022-11-15T02:02:44;10.50;99.90
4509;DHT22;2267;48.816;9.230;2022-11-15T02:05:11;10.50;99.90
4509;DHT22;2267;48.816;9.230;2022-11-15T02:07:38;10.50;99.90
4509;DHT22;2267;48.816;9.230;2022-11-15T02:10:16;10.40;99.90
4509;DHT22;2267;48.816;9.230;2022-11-15T02:12:43;10.40;99.90
4509;DHT22;2267;48.816;9.230;2022-11-15T02:15:11;10.40;99.90
4509;DHT22;2267;48.816;9.230;2022-11-15T02:26:52;10.30;99.90
4509;DHT22;2267;48.816;9.230;2022-11-15T02:29:12;10.30;99.90
4509;DHT22;2267;48.816;9.230;2022-11-15T02:34:43;10.30;99.90
4509;DHT22;2267;48.816;9.230;2022-11-15T02:40:30;10.30;99.90
4509;DHT22;2267;48.816;9.230;2022-11-15T02:43:07;10.30;99.90
4509;DHT22;2267;48.816;9.230;2022-11-15T02:49:13;10.30;99.90
4509;DHT22;2267;48.816;9.230;2022-11-15T02:51:42;10.30;99.90
4509;DHT22;2267;48.816;9.230;2022-11-15T02:54:17;10.20;99.90
4509;DHT22;2267;48.816;9.230;2022-11-15T02:56:46;10.20;99.90
4509;DHT22;2267;48.816;9.230;2022-11-15T03:02:15;10.20;99.90
4509;DHT22;2267;48.816;9.230;2022-11-15T03:04:55;10.20;99.90
4509;DHT22;2267;48.816;9.230;2022-11-15T03:07:30;10.20;99.90
4509;DHT22;2267;48.816;9.230;2022-11-15T03:10:05;10.20;99.90
4509;DHT22;2267;48.816;9.230;2022-11-15T03:12:51;10.20;99.90
4509;DHT22;2267;48.816;9.230;2022-11-15T03:15:21;10.20;99.90
4509;DHT22;2267;48.816;9.230;2022-11-15T03:17:53;10.20;99.90
4509;DHT22;2267;48.816;9.230;2022-11-15T03:20:23;10.20;99.90
4509;DHT22;2267;48.816;9.230;2022-11-15T03:22:53;10.10;99.90
4509;DHT22;2267;48.816;9.230;2022-11-15T03:25:24;10.10;99.90
4509;DHT22;2267;48.816;9.230;2022-11-15T03:27:54;10.10;99.90
4509;DHT22;2267;48.816;9.230;2022-11-15T03:30:22;10.10;99.90
4509;DHT22;2267;48.816;9.230;2022-11-15T03:32:56;10.10;99.90
4509;DHT22;2267;48.816;9.230;2022-11-15T03:35:25;10.10;99.90
4509;DHT22;2267;48.816;9.230;2022-11-15T03:38:13;10.10;99.90
4509;DHT22;2267;48.816;9.230;2022-11-15T03:41:05;10.10;99.90
4509;DHT22;2267;48.816;9.230;2022-11-15T03:43:56;10.10;99.90
4509;DHT22;2267;48.816;9.230;2022-11-15T03:46:27;10.00;99.90
4509;DHT22;2267;48.816;9.230;2022-11-15T03:49:11;10.00;99.90
4509;DHT22;2267;48.816;9.230;2022-11-15T03:51:40;10.00;99.90
4509;DHT22;2267;48.816;9.230;2022-11-15T03:54:07;10.00;99.90
4509;DHT22;2267;48.816;9.230;2022-11-15T03:56:34;10.00;99.90
4509;DHT22;2267;48.816;9.230;2022-11-15T03:59:00;10.00;99.90
4509;DHT22;2267;48.816;9.230;2022-11-15T04:01:27;10.00;99.90
4509;DHT22;2267;48.816;9.230;2022-11-15T04:03:54;9.90;99.90
4509;DHT22;2267;48.816;9.230;2022-11-15T04:06:21;10.00;99.90
4509;DHT22;2267;48.816;9.230;2022-11-15T04:08:47;10.00;99.90
4509;DHT22;2267;48.816;9.230;2022-11-15T04:11:14;10.00;99.90
4509;DHT22;2267;48.816;9.230;2022-11-15T04:13:41;9.90;99.90
4509;DHT22;2267;48.816;9.230;2022-11-15T04:16:07;9.90;99.90
4509;DHT22;2267;48.816;9.230;2022-11-15T04:18:34;9.90;99.90
4509;DHT22;2267;48.816;9.230;2022-11-15T04:21:01;10.00;99.90
4509;DHT22;2267;48.816;9.230;2022-11-15T04:23:46;9.90;99.90
4509;DHT22;2267;48.816;9.230;2022-11-15T04:26:21;10.00;99.90
4509;DHT22;2267;48.816;9.230;2022-11-15T04:28:48;9.90;99.90
4509;DHT22;2267;48.816;9.230;2022-11-15T04:31:34;9.90;99.90
4509;DHT22;2267;48.816;9.230;2022-11-15T04:34:00;9.90;99.90
4509;DHT22;2267;48.816;9.230;2022-11-15T04:36:27;9.90;99.90
4509;DHT22;2267;48.816;9.230;2022-11-15T04:39:12;9.90;99.90
4509;DHT22;2267;48.816;9.230;2022-11-15T04:41:39;9.90;99.90
4509;DHT22;2267;48.816;9.230;2022-11-15T04:44:06;9.90;99.90
4509;DHT22;2267;48.816;9.230;2022-11-15T04:46:33;9.90;99.90
4509;DHT22;2267;48.816;9.230;2022-11-15T04:48:59;9.90;99.90
4509;DHT22;2267;48.816;9.230;2022-11-15T04:51:26;9.90;99.90
4509;DHT22;2267;48.816;9.230;2022-11-15T04:53:53;9.90;99.90
4509;DHT22;2267;48.816;9.230;2022-11-15T04:56:19;9.90;99.90
4509;DHT22;2267;48.816;9.230;2022-11-15T04:58:49;9.90;99.90
4509;DHT22;2267;48.816;9.230;2022-11-15T05:01:16;9.90;99.90
4509;DHT22;2267;48.816;9.230;2022-11-15T05:03:44;9.90;99.90
4509;DHT22;2267;48.816;9.230;2022-11-15T05:06:30;9.90;99.90
4509;DHT22;2267;48.816;9.230;2022-11-15T05:08:57;9.90;99.90
4509;DHT22;2267;48.816;9.230;2022-11-15T05:11:24;9.80;99.90
4509;DHT22;2267;48.816;9.230;2022-11-15T05:13:51;9.80;99.90
4509;DHT22;2267;48.816;9.230;2022-11-15T05:16:17;9.80;99.90
4509;DHT22;2267;48.816;9.230;2022-11-15T05:18:44;9.80;99.90
4509;DHT22;2267;48.816;9.230;2022-11-15T05:21:13;9.80;99.90
4509;DHT22;2267;48.816;9.230;2022-11-15T05:23:41;9.80;99.90
4509;DHT22;2267;48.816;9.230;2022-11-15T05:26:08;9.80;99.90
4509;DHT22;2267;48.816;9.230;2022-11-15T05:28:36;9.80;99.90
4509;DHT22;2267;48.816;9.230;2022-11-15T05:31:08;9.80;99.90
4509;DHT22;2267;48.816;9.230;2022-11-15T05:33:39;9.80;99.90
4509;DHT22;2267;48.816;9.230;2022-11-15T05:38:54;9.80;99.90
4509;DHT22;2267;48.816;9.230;2022-11-15T05:41:26;9.80;99.90
4509;DHT22;2267;48.816;9.230;2022-11-15T05:43:54;9.70;99.90
4509;DHT22;2267;48.816;9.230;2022-11-15T05:46:21;9.70;99.90
4509;DHT22;2267;48.816;9.230;2022-11-15T05:48:49;9.70;99.90
4509;DHT22;2267;48.816;9.230;2022-11-15T05:51:17;9.70;99.90
4509;DHT22;2267;48.816;9.230;2022-11-15T05:53:44;9.70;99.90
4509;DHT22;2267;48.816;9.230;2022-11-15T05:56:11;9.70;99.90
4509;DHT22;2267;48.816;9.230;2022-11-15T05:58:38;9.70;99.90
4509;DHT22;2267;48.816;9.230;2022-11-15T06:01:05;9.70;99.90
4509;DHT22;2267;48.816;9.230;2022-11-15T06:03:32;9.70;99.90
4509;DHT22;2267;48.816;9.230;2022-11-15T06:05:59;9.70;99.90
4509;DHT22;2267;48.816;9.230;2022-11-15T06:08:27;9.70;99.90
4509;DHT22;2267;48.816;9.230;2022-11-15T06:10:53;9.70;99.90
4509;DHT22;2267;48.816;9.230;2022-11-15T06:13:20;9.70;99.90
4509;DHT22;2267;48.816;9.230;2022-11-15T06:15:47;9.70;99.90
4509;DHT22;2267;48.816;9.230;2022-11-15T06:18:14;9.70;99.90
4509;DHT22;2267;48.816;9.230;2022-11-15T06:20:41;9.70;99.90
4509;DHT22;2267;48.816;9.230;2022-11-15T06:23:07;9.70;99.90
4509;DHT22;2267;48.816;9.230;2022-11-15T06:25:34;9.70;99.90
4509;DHT22;2267;48.816;9.230;2022-11-15T06:28:01;9.70;99.90
4509;DHT22;2267;48.816;9.230;2022-11-15T06:30:28;9.70;99.90
4509;DHT22;2267;48.816;9.230;2022-11-15T06:33:02;9.70;99.90
4509;DHT22;2267;48.816;9.230;2022-11-15T06:35:32;9.70;99.90
4509;DHT22;2267;48.816;9.230;2022-11-15T06:38:05;9.70;99.90
4509;DHT22;2267;48.816;9.230;2022-11-15T06:40:36;9.70;99.90
4509;DHT22;2267;48.816;9.230;2022-11-15T06:43:04;9.70;99.90
4509;DHT22;2267;48.816;9.230;2022-11-15T06:45:31;9.70;99.90
4509;DHT22;2267;48.816;9.230;2022-11-15T06:47:58;9.70;99.90
4509;DHT22;2267;48.816;9.230;2022-11-15T06:50:25;9.70;99.90
4509;DHT22;2267;48.816;9.230;2022-11-15T06:52:52;9.70;99.90
4509;DHT22;2267;48.816;9.230;2022-11-15T06:55:19;9.70;99.90
4509;DHT22;2267;48.816;9.230;2022-11-15T06:57:50;9.70;99.90
4509;DHT22;2267;48.816;9.230;2022-11-15T07:00:21;9.60;99.90
4509;DHT22;2267;48.816;9.230;2022-11-15T07:02:48;9.70;99.90
4509;DHT22;2267;48.816;9.230;2022-11-15T07:05:15;9.60;99.90
4509;DHT22;2267;48.816;9.230;2022-11-15T07:07:42;9.60;99.90
4509;DHT22;2267;48.816;9.230;2022-11-15T07:10:09;9.60;99.90
4509;DHT22;2267;48.816;9.230;2022-11-15T07:12:36;9.60;99.90
4509;DHT22;2267;48.816;9.230;2022-11-15T07:15:03;9.60;99.90
4509;DHT22;2267;48.816;9.230;2022-11-15T07:17:30;9.70;99.90
4509;DHT22;2267;48.816;9.230;2022-11-15T07:19:56;9.70;99.90
4509;DHT22;2267;48.816;9.230;2022-11-15T07:22:23;9.70;99.90
4509;DHT22;2267;48.816;9.230;2022-11-15T07:24:50;9.70;99.90
4509;DHT22;2267;48.816;9.230;2022-11-15T07:27:17;9.70;99.90
4509;DHT22;2267;48.816;9.230;2022-11-15T07:29:44;9.70;99.90
4509;DHT22;2267;48.816;9.230;2022-11-15T07:32:10;9.80;99.90
4509;DHT22;2267;48.816;9.230;2022-11-15T07:34:37;9.80;99.90
4509;DHT22;2267;48.816;9.230;2022-11-15T07:37:04;9.80;99.90
4509;DHT22;2267;48.816;9.230;2022-11-15T07:39:30;9.90;99.90
4509;DHT22;2267;48.816;9.230;2022-11-15T07:41:57;9.90;99.90
4509;DHT22;2267;48.816;9.230;2022-11-15T07:44:43;9.90;99.90
4509;DHT22;2267;48.816;9.230;2022-11-15T07:47:10;10.00;99.90
4509;DHT22;2267;48.816;9.230;2022-11-15T07:49:37;10.00;99.90
4509;DHT22;2267;48.816;9.230;2022-11-15T07:52:04;10.10;99.90
4509;DHT22;2267;48.816;9.230;2022-11-15T07:54:31;10.10;99.90
4509;DHT22;2267;48.816;9.230;2022-11-15T07:56:57;10.30;99.90
4509;DHT22;2267;48.816;9.230;2022-11-15T07:59:32;10.50;99.90
4509;DHT22;2267;48.816;9.230;2022-11-15T08:01:59;10.60;99.90
4509;DHT22;2267;48.816;9.230;2022-11-15T08:04:26;10.70;99.90
4509;DHT22;2267;48.816;9.230;2022-11-15T08:06:52;10.70;99.90
4509;DHT22;2267;48.816;9.230;2022-11-15T08:09:19;10.70;99.90
4509;DHT22;2267;48.816;9.230;2022-11-15T08:11:46;10.70;99.90
4509;DHT22;2267;48.816;9.230;2022-11-15T08:14:13;10.70;99.90
4509;DHT22;2267;48.816;9.230;2022-11-15T08:16:40;10.70;99.90
4509;DHT22;2267;48.816;9.230;2022-11-15T08:19:06;10.80;99.90
4509;DHT22;2267;48.816;9.230;2022-11-15T08:21:33;10.80;99.90
4509;DHT22;2267;48.816;9.230;2022-11-15T08:24:00;10.80;99.90
4509;DHT22;2267;48.816;9.230;2022-11-15T08:26:27;10.90;99.90
4509;DHT22;2267;48.816;9.230;2022-11-15T08:28:55;10.90;99.90
4509;DHT22;2267;48.816;9.230;2022-11-15T08:31:22;11.00;99.90
4509;DHT22;2267;48.816;9.230;2022-11-15T08:33:49;11.00;99.90
4509;DHT22;2267;48.816;9.230;2022-11-15T08:36:16;11.00;99.90
4509;DHT22;2267;48.816;9.230;2022-11-15T08:38:44;11.00;99.90
4509;DHT22;2267;48.816;9.230;2022-11-15T08:41:30;11.00;99.90
4509;DHT22;2267;48.816;9.230;2022-11-15T08:43:57;11.10;99.90
4509;DHT22;2267;48.816;9.230;2022-11-15T08:46:24;11.20;99.90
4509;DHT22;2267;48.816;9.230;2022-11-15T08:48:51;11.20;99.90
4509;DHT22;2267;48.816;9.230;2022-11-15T08:51:18;11.20;99.90
4509;DHT22;2267;48.816;9.230;2022-11-15T08:53:44;11.30;99.90
4509;DHT22;2267;48.816;9.230;2022-11-15T08:56:14;11.40;99.90
4509;DHT22;2267;48.816;9.230;2022-11-15T08:58:41;11.40;99.90
4509;DHT22;2267;48.816;9.230;2022-11-15T09:01:18;11.50;99.90
4509;DHT22;2267;48.816;9.230;2022-11-15T09:03:45;11.60;99.90
4509;DHT22;2267;48.816;9.230;2022-11-15T09:06:13;11.70;99.90
4509;DHT22;2267;48.816;9.230;2022-11-15T09:08:40;11.80;99.90
4509;DHT22;2267;48.816;9.230;2022-11-15T09:11:13;12.00;99.90
4509;DHT22;2267;48.816;9.230;2022-11-15T09:13:41;12.20;99.90
4509;DHT22;2267;48.816;9.230;2022-11-15T09:16:07;12.40;99.90
4509;DHT22;2267;48.816;9.230;2022-11-15T09:18:34;12.70;99.90
4509;DHT22;2267;48.816;9.230;2022-11-15T09:21:01;12.80;99.90
4509;DHT22;2267;48.816;9.230;2022-11-15T09:23:29;13.00;99.90
4509;DHT22;2267;48.816;9.230;2022-11-15T09:26:03;13.20;99.90
4509;DHT22;2267;48.816;9.230;2022-11-15T09:28:31;13.40;99.90
4509;DHT22;2267;48.816;9.230;2022-11-15T09:31:01;13.50;99.90
4509;DHT22;2267;48.816;9.230;2022-11-15T09:33:28;13.60;99.90
4509;DHT22;2267;48.816;9.230;2022-11-15T09:36:07;13.70;99.90
4509;DHT22;2267;48.816;9.230;2022-11-15T09:38:34;13.70;99.90
4509;DHT22;2267;48.816;9.230;2022-11-15T09:49:22;14.10;99.90
4509;DHT22;2267;48.816;9.230;2022-11-15T09:51:51;14.10;99.90
4509;DHT22;2267;48.816;9.230;2022-11-15T09:54:34;14.20;99.90
4509;DHT22;2267;48.816;9.230;2022-11-15T09:57:39;14.30;99.90
4509;DHT22;2267;48.816;9.230;2022-11-15T10:00:33;14.60;99.90
4509;DHT22;2267;48.816;9.230;2022-11-15T10:03:34;14.70;99.90
4509;DHT22;2267;48.816;9.230;2022-11-15T10:06:04;14.80;99.90
4509;DHT22;2267;48.816;9.230;2022-11-15T10:08:51;14.90;99.90
4509;DHT22;2267;48.816;9.230;2022-11-15T10:11:25;15.00;99.90
4509;DHT22;2267;48.816;9.230;2022-11-15T10:14:13;14.90;99.90
4509;DHT22;2267;48.816;9.230;2022-11-15T10:19:35;14.80;99.90
4509;DHT22;2267;48.816;9.230;2022-11-15T10:24:43;14.50;99.90
4509;DHT22;2267;48.816;9.230;2022-11-15T10:27:16;14.40;99.90
4509;DHT22;2267;48.816;9.230;2022-11-15T10:29:46;14.30;99.90
4509;DHT22;2267;48.816;9.230;2022-11-15T10:32:16;14.30;99.90
4509;DHT22;2267;48.816;9.230;2022-11-15T10:34:43;14.20;99.90
4509;DHT22;2267;48.816;9.230;2022-11-15T10:37:10;14.10;99.90
4509;DHT22;2267;48.816;9.230;2022-11-15T10:39:37;14.10;99.90
4509;DHT22;2267;48.816;9.230;2022-11-15T10:42:26;14.00;99.90
4509;DHT22;2267;48.816;9.230;2022-11-15T10:44:54;14.00;99.90
4509;DHT22;2267;48.816;9.230;2022-11-15T10:47:22;13.90;99.90
4509;DHT22;2267;48.816;9.230;2022-11-15T10:50:29;13.90;99.90
4509;DHT22;2267;48.816;9.230;2022-11-15T10:52:57;13.80;99.90
4509;DHT22;2267;48.816;9.230;2022-11-15T10:55:30;13.80;99.90
4509;DHT22;2267;48.816;9.230;2022-11-15T10:58:19;13.80;99.90
4509;DHT22;2267;48.816;9.230;2022-11-15T11:00:46;13.70;99.90
4509;DHT22;2267;48.816;9.230;2022-11-15T11:06:17;13.70;99.90
4509;DHT22;2267;48.816;9.230;2022-11-15T11:11:55;13.70;99.90
4509;DHT22;2267;48.816;9.230;2022-11-15T11:14:26;13.60;99.90
4509;DHT22;2267;48.816;9.230;2022-11-15T11:16:59;13.60;99.90
4509;DHT22;2267;48.816;9.230;2022-11-15T11:25:12;13.60;99.90
4509;DHT22;2267;48.816;9.230;2022-11-15T11:27:47;13.50;99.90
4509;DHT22;2267;48.816;9.230;2022-11-15T11:30:45;13.50;99.90
4509;DHT22;2267;48.816;9.230;2022-11-15T11:49:57;13.60;99.90
4509;DHT22;2267;48.816;9.230;2022-11-15T11:52:33;13.60;99.90
4509;DHT22;2267;48.816;9.230;2022-11-15T11:55:16;13.60;99.90
4509;DHT22;2267;48.816;9.230;2022-11-15T11:58:12;13.70;99.90
4509;DHT22;2267;48.816;9.230;2022-11-15T12:12:27;13.80;99.90
4509;DHT22;2267;48.816;9.230;2022-11-15T12:15:02;13.80;99.90
4509;DHT22;2267;48.816;9.230;2022-11-15T12:17:32;13.90;99.90
4509;DHT22;2267;48.816;9.230;2022-11-15T12:20:01;14.00;99.90
4509;DHT22;2267;48.816;9.230;2022-11-15T12:22:40;14.00;99.90
4509;DHT22;2267;48.816;9.230;2022-11-15T12:28:08;14.00;99.90
4509;DHT22;2267;48.816;9.230;2022-11-15T12:30:52;14.00;99.90
4509;DHT22;2267;48.816;9.230;2022-11-15T12:33:38;14.00;99.90
4509;DHT22;2267;48.816;9.230;2022-11-15T12:36:11;14.00;99.90
4509;DHT22;2267;48.816;9.230;2022-11-15T12:41:23;14.00;99.90
4509;DHT22;2267;48.816;9.230;2022-11-15T12:43:51;13.90;99.90
4509;DHT22;2267;48.816;9.230;2022-11-15T12:51:13;13.90;99.90
4509;DHT22;2267;48.816;9.230;2022-11-15T12:53:40;13.90;99.90
4509;DHT22;2267;48.816;9.230;2022-11-15T12:59:01;13.90;99.90
4509;DHT22;2267;48.816;9.230;2022-11-15T13:04:21;13.80;99.90
4509;DHT22;2267;48.816;9.230;2022-11-15T13:07:02;13.80;99.90
4509;DHT22;2267;48.816;9.230;2022-11-15T13:17:45;13.80;99.90
4509;DHT22;2267;48.816;9.230;2022-11-15T13:23:30;13.80;99.90
4509;DHT22;2267;48.816;9.230;2022-11-15T13:28:42;13.80;99.90
4509;DHT22;2267;48.816;9.230;2022-11-15T13:31:17;13.80;99.90
4509;DHT22;2267;48.816;9.230;2022-11-15T13:33:45;13.80;99.90
4509;DHT22;2267;48.816;9.230;2022-11-15T13:36:22;13.80;99.90
4509;DHT22;2267;48.816;9.230;2022-11-15T13:38:59;13.80;99.90
4509;DHT22;2267;48.816;9.230;2022-11-15T13:41:29;13.80;99.90
4509;DHT22;2267;48.816;9.230;2022-11-15T13:43:57;13.80;99.90
4509;DHT22;2267;48.816;9.230;2022-11-15T13:46:27;13.80;99.90
4509;DHT22;2267;48.816;9.230;2022-11-15T13:51:47;13.80;99.90
4509;DHT22;2267;48.816;9.230;2022-11-15T13:54:21;13.80;99.90
4509;DHT22;2267;48.816;9.230;2022-11-15T13:56:55;13.80;99.90
4509;DHT22;2267;48.816;9.230;2022-11-15T13:59:24;13.80;99.90
4509;DHT22;2267;48.816;9.230;2022-11-15T14:01:54;13.80;99.90
4509;DHT22;2267;48.816;9.230;2022-11-15T14:04:23;13.80;99.90
4509;DHT22;2267;48.816;9.230;2022-11-15T14:06:57;13.80;99.90
4509;DHT22;2267;48.816;9.230;2022-11-15T14:09:36;13.70;99.90
4509;DHT22;2267;48.816;9.230;2022-11-15T14:12:27;13.70;99.90
4509;DHT22;2267;48.816;9.230;2022-11-15T14:14:56;13.70;99.90
4509;DHT22;2267;48.816;9.230;2022-11-15T14:19:59;13.70;99.90
4509;DHT22;2267;48.816;9.230;2022-11-15T14:22:30;13.70;99.90
4509;DHT22;2267;48.816;9.230;2022-11-15T14:25:20;13.70;99.90
4509;DHT22;2267;48.816;9.230;2022-11-15T14:28:11;13.70;99.90
4509;DHT22;2267;48.816;9.230;2022-11-15T14:30:42;13.70;99.90
4509;DHT22;2267;48.816;9.230;2022-11-15T14:33:33;13.70;99.90
4509;DHT22;2267;48.816;9.230;2022-11-15T14:36:12;13.70;99.90
4509;DHT22;2267;48.816;9.230;2022-11-15T14:38:39;13.70;99.90
4509;DHT22;2267;48.816;9.230;2022-11-15T14:41:21;13.60;99.90
4509;DHT22;2267;48.816;9.230;2022-11-15T14:43:49;13.60;99.90
4509;DHT22;2267;48.816;9.230;2022-11-15T14:46:17;13.60;99.90
4509;DHT22;2267;48.816;9.230;2022-11-15T14:48:44;13.60;99.90
4509;DHT22;2267;48.816;9.230;2022-11-15T14:51:13;13.60;99.90
4509;DHT22;2267;48.816;9.230;2022-11-15T14:53:41;13.60;99.90
4509;DHT22;2267;48.816;9.230;2022-11-15T14:56:09;13.60;99.90
4509;DHT22;2267;48.816;9.230;2022-11-15T14:58:36;13.60;99.90
4509;DHT22;2267;48.816;9.230;2022-11-15T15:01:20;13.60;99.90
4509;DHT22;2267;48.816;9.230;2022-11-15T15:03:47;13.60;99.90
4509;DHT22;2267;48.816;9.230;2022-11-15T15:06:19;13.60;99.90
4509;DHT22;2267;48.816;9.230;2022-11-15T15:08:46;13.60;99.90
4509;DHT22;2267;48.816;9.230;2022-11-15T15:11:25;13.60;99.90
4509;DHT22;2267;48.816;9.230;2022-11-15T15:13:54;13.60;99.90
4509;DHT22;2267;48.816;9.230;2022-11-15T15:16:24;13.60;99.90
4509;DHT22;2267;48.816;9.230;2022-11-15T15:18:51;13.50;99.90
4509;DHT22;2267;48.816;9.230;2022-11-15T15:21:21;13.50;99.90
4509;DHT22;2267;48.816;9.230;2022-11-15T15:23:49;13.50;99.90
4509;DHT22;2267;48.816;9.230;2022-11-15T15:26:16;13.50;99.90
4509;DHT22;2267;48.816;9.230;2022-11-15T15:28:43;13.60;99.90
4509;DHT22;2267;48.816;9.230;2022-11-15T15:31:10;13.50;99.90
4509;DHT22;2267;48.816;9.230;2022-11-15T15:33:37;13.50;99.90
4509;DHT22;2267;48.816;9.230;2022-11-15T15:36:04;13.50;99.90
4509;DHT22;2267;48.816;9.230;2022-11-15T15:38:31;13.40;99.90
4509;DHT22;2267;48.816;9.230;2022-11-15T15:40:59;13.40;99.90
4509;DHT22;2267;48.816;9.230;2022-11-15T15:43:28;13.40;99.90
4509;DHT22;2267;48.816;9.230;2022-11-15T15:45:55;13.30;99.90
4509;DHT22;2267;48.816;9.230;2022-11-15T15:48:22;13.30;99.90
4509;DHT22;2267;48.816;9.230;2022-11-15T15:50:48;13.30;99.90
4509;DHT22;2267;48.816;9.230;2022-11-15T15:53:15;13.30;99.90
4509;DHT22;2267;48.816;9.230;2022-11-15T15:55:43;13.30;99.90
4509;DHT22;2267;48.816;9.230;2022-11-15T15:58:10;13.30;99.90
4509;DHT22;2267;48.816;9.230;2022-11-15T16:00:37;13.30;99.90
4509;DHT22;2267;48.816;9.230;2022-11-15T16:03:05;13.30;99.90
4509;DHT22;2267;48.816;9.230;2022-11-15T16:05:32;13.30;99.90
4509;DHT22;2267;48.816;9.230;2022-11-15T16:07:59;13.30;99.90
4509;DHT22;2267;48.816;9.230;2022-11-15T16:10:33;13.30;99.90
4509;DHT22;2267;48.816;9.230;2022-11-15T16:13:07;13.30;99.90
4509;DHT22;2267;48.816;9.230;2022-11-15T16:15:35;13.30;99.90
4509;DHT22;2267;48.816;9.230;2022-11-15T16:18:03;13.30;99.90
4509;DHT22;2267;48.816;9.230;2022-11-15T16:20:44;13.30;99.90
4509;DHT22;2267;48.816;9.230;2022-11-15T16:23:14;13.30;99.90
4509;DHT22;2267;48.816;9.230;2022-11-15T16:25:52;13.30;99.90
4509;DHT22;2267;48.816;9.230;2022-11-15T16:28:25;13.30;99.90
4509;DHT22;2267;48.816;9.230;2022-11-15T16:31:24;13.30;99.90
4509;DHT22;2267;48.816;9.230;2022-11-15T16:33:51;13.30;99.90
4509;DHT22;2267;48.816;9.230;2022-11-15T16:36:22;13.30;99.90
4509;DHT22;2267;48.816;9.230;2022-11-15T16:38:55;13.30;99.90
4509;DHT22;2267;48.816;9.230;2022-11-15T16:41:22;13.30;99.90
4509;DHT22;2267;48.816;9.230;2022-11-15T16:43:48;13.30;99.90
4509;DHT22;2267;48.816;9.230;2022-11-15T16:46:20;13.30;99.90
4509;DHT22;2267;48.816;9.230;2022-11-15T16:48:48;13.30;99.90
4509;DHT22;2267;48.816;9.230;2022-11-15T16:51:15;13.30;99.90
4509;DHT22;2267;48.816;9.230;2022-11-15T16:53:42;13.30;99.90
4509;DHT22;2267;48.816;9.230;2022-11-15T16:56:24;13.30;99.90
4509;DHT22;2267;48.816;9.230;2022-11-15T16:58:53;13.30;99.90
4509;DHT22;2267;48.816;9.230;2022-11-15T17:01:25;13.30;99.90
4509;DHT22;2267;48.816;9.230;2022-11-15T17:03:53;13.30;99.90
4509;DHT22;2267;48.816;9.230;2022-11-15T17:06:21;13.20;99.90
4509;DHT22;2267;48.816;9.230;2022-11-15T17:08:49;13.20;99.90
4509;DHT22;2267;48.816;9.230;2022-11-15T17:11:19;13.20;99.90
4509;DHT22;2267;48.816;9.230;2022-11-15T17:13:46;13.20;99.90
4509;DHT22;2267;48.816;9.230;2022-11-15T17:16:16;13.20;99.90
4509;DHT22;2267;48.816;9.230;2022-11-15T17:18:43;13.20;99.90
4509;DHT22;2267;48.816;9.230;2022-11-15T17:21:16;13.20;99.90
4509;DHT22;2267;48.816;9.230;2022-11-15T17:23:43;13.10;99.90
4509;DHT22;2267;48.816;9.230;2022-11-15T17:26:12;13.10;99.90
4509;DHT22;2267;48.816;9.230;2022-11-15T17:28:59;13.10;99.90
4509;DHT22;2267;48.816;9.230;2022-11-15T17:31:27;13.10;99.90
4509;DHT22;2267;48.816;9.230;2022-11-15T17:33:56;13.10;99.90
4509;DHT22;2267;48.816;9.230;2022-11-15T17:36:23;13.10;99.90
4509;DHT22;2267;48.816;9.230;2022-11-15T17:38:49;13.10;99.90
4509;DHT22;2267;48.816;9.230;2022-11-15T17:41:25;13.10;99.90
4509;DHT22;2267;48.816;9.230;2022-11-15T17:43:52;13.10;99.90
4509;DHT22;2267;48.816;9.230;2022-11-15T17:46:20;13.10;99.90
4509;DHT22;2267;48.816;9.230;2022-11-15T17:48:47;13.20;99.90
4509;DHT22;2267;48.816;9.230;2022-11-15T17:51:16;13.20;99.90
4509;DHT22;2267;48.816;9.230;2022-11-15T17:53:45;13.20;99.90
4509;DHT22;2267;48.816;9.230;2022-11-15T17:56:14;13.20;99.90
4509;DHT22;2267;48.816;9.230;2022-11-15T17:58:47;13.10;99.90
4509;DHT22;2267;48.816;9.230;2022-11-15T18:01:18;13.10;99.90
4509;DHT22;2267;48.816;9.230;2022-11-15T18:03:46;13.10;99.90
4509;DHT22;2267;48.816;9.230;2022-11-15T18:06:14;13.20;99.90
4509;DHT22;2267;48.816;9.230;2022-11-15T18:08:43;13.20;99.90
4509;DHT22;2267;48.816;9.230;2022-11-15T18:11:16;13.20;99.90
4509;DHT22;2267;48.816;9.230;2022-11-15T18:13:45;13.20;99.90
4509;DHT22;2267;48.816;9.230;2022-11-15T18:16:20;13.20;99.90
4509;DHT22;2267;48.816;9.230;2022-11-15T18:18:47;13.20;99.90
4509;DHT22;2267;48.816;9.230;2022-11-15T18:21:25;13.20;99.90